• Join FlightAware (Why Join?)
  • Login
  • US Flag 
04:06AM EST


 

Airport Tracker/Info


-or-


 

Live Flight TrackerFlight Track Log ✈ N13905 ✈ 08-May-2013 ✈ KGEG - KBLI

Flight Track Log - Related Links

Times and Time Zones

All times are in EDT time to prevent confusion due to time zone crossing. See the N13905 flight status page for this flight to view local times or setup timezone preferences in your user account.

Time Position Orientation Groundspeed Altitude Reporting Facility
EDT Latitude Longitude Course Direction KTS MPH feet Rate Location/Type
07:06PM 47.5633 -117.6228 252° West 70 81 5,200  Level Seattle Center
07:07PM 47.5441 -117.6703 261° West  Level FlightAware Approximate
07:07PM 47.5639 -117.6519 272° West 71 82 5,600  Level Seattle Center
07:08PM 47.5397 -117.7092 261° West  Level FlightAware Approximate
07:08PM 47.5639 -117.6808 270° West 70 81 6,100  Level Seattle Center
07:09PM 47.5354 -117.7480 261° West  Level FlightAware Approximate
07:09PM 47.5628 -117.7158 267° West 72 83 6,700  Level Seattle Center
07:10PM 47.5290 -117.7861 252° West  Level FlightAware Approximate
07:10PM 47.5622 -117.7442 268° West 70 81 7,100  Level Seattle Center
07:11PM 47.5207 -117.8236 252° West  Level FlightAware Approximate
07:11PM 47.5617 -117.7744 268° West 73 84 7,500  Level Seattle Center
07:12PM 47.5614 -117.8053 269° West 75 86 7,800 240 Climbing Seattle Center
07:13PM 47.5606 -117.8356 268° West 74 85 8,000 240 Climbing Seattle Center
07:14PM 47.5439 -117.8594 224° Southwest 84 97 8,400 300 Climbing Seattle Center
07:15PM 47.5253 -117.8814 219° Southwest 85 98 8,700 240 Climbing Seattle Center
07:16PM 47.5092 -117.9033 223° Southwest 80 92 9,000 300 Climbing Seattle Center
07:17PM 47.5011 -117.9328 248° West 78 90 9,400 360 Climbing Seattle Center
07:18PM 47.4958 -117.9644 256° West 79 91 9,800 300 Climbing Seattle Center
07:19PM 47.4903 -117.9942 255° West 76 87 10,100 120 Climbing Seattle Center
07:20PM 47.4819 -118.0392 255° West 97 112 10,100 -60 Level Seattle Center
07:21PM 47.4750 -118.0783 255° West 99 114 10,000 -60 Descending Seattle Center
07:22PM 47.4675 -118.1169 254° West 98 113 10,000  Level Seattle Center
07:23PM 47.4589 -118.1550 252° West 97 112 10,000  Level Seattle Center
07:24PM 47.4517 -118.1939 255° West 98 113 10,000  Level Seattle Center
07:25PM 47.4431 -118.2297 250° West 90 104 10,100  Climbing Seattle Center
07:26PM 47.4356 -118.2681 254° West 98 113 10,100 -60 Level Seattle Center
07:27PM 47.4228 -118.3019 241° Southwest 100 115 10,000 -60 Descending Seattle Center
07:28PM 47.3958 -118.3147 198° South 102 117 10,000  Level Seattle Center
07:29PM 47.3731 -118.3278 201° Southwest 92 106 10,000  Level Seattle Center
07:30PM 47.3642 -118.3489 238° Southwest 79 91 10,100  Climbing Seattle Center
07:31PM 47.3867 -118.3742 323° Northwest 86 99 10,100  Level Seattle Center
07:32PM 47.4042 -118.4047 310° West 98 113 10,100  Level Seattle Center
07:33PM 47.4036 -118.4475 269° West 104 120 10,100  Level Seattle Center
07:34PM 47.3983 -118.4881 259° West 103 119 10,100  Level Seattle Center
07:35PM 47.3911 -118.5294 256° West 106 122 10,100 -60 Level Seattle Center
07:36PM 47.3817 -118.5681 250° West 103 119 10,000  Descending Seattle Center
07:37PM 47.3736 -118.6061 253° West 99 114 10,100  Climbing Seattle Center
07:38PM 47.3678 -118.6453 258° West 103 119 10,000 -120 Descending Seattle Center
07:39PM 47.3592 -118.6850 252° West 99 114 9,900  Descending Seattle Center
07:40PM 47.3553 -118.7217 261° West 96 110 10,000 60 Climbing Seattle Center
07:41PM 47.3469 -118.7564 251° West 89 102 10,100  Climbing Seattle Center
07:42PM 47.3333 -118.7900 239° Southwest 95 109 10,000 -60 Descending Seattle Center
07:43PM 47.3189 -118.8319 243° Southwest 98 113 10,000  Level Seattle Center
07:44PM 47.3083 -118.8656 245° Southwest 91 105 10,100  Climbing Seattle Center
07:45PM 47.2983 -118.9031 249° West 99 114 10,100  Level Seattle Center
07:46PM 47.2922 -118.9403 256° West 95 109 10,100 -60 Level Seattle Center
07:47PM 47.2850 -118.9781 254° West 97 112 10,000 -60 Descending Seattle Center
07:48PM 47.2817 -119.0164 263° West 94 108 10,000  Level Seattle Center
07:49PM 47.2753 -119.0544 256° West 96 110 10,000  Level Seattle Center
07:50PM 47.2639 -119.0894 244° Southwest 93 107 10,000  Level Seattle Center
07:51PM 47.2536 -119.1247 247° West 95 109 10,100  Climbing Seattle Center
07:52PM 47.2486 -119.1617 259° West 94 108 10,000  Descending Seattle Center
07:54PM 47.2408 -119.1981 253° West 92 106 10,100  Climbing Seattle Center
07:55PM 47.2281 -119.2333 242° Southwest 97 112 10,000 -120 Descending Seattle Center
07:56PM 47.2183 -119.2756 251° West 90 104 9,900 -60 Descending Seattle Center
07:57PM 47.2094 -119.3114 250° West 94 108 9,900  Level Seattle Center
07:58PM 47.2017 -119.3458 252° West 89 102 10,000  Climbing Seattle Center
07:59PM 47.1983 -119.3828 262° West 90 104 10,000 -60 Level Seattle Center
08:00PM 47.1917 -119.4194 255° West 93 107 9,900 -60 Descending Seattle Center
08:01PM 47.1867 -119.4558 259° West 91 105 9,900  Level Seattle Center
08:02PM 47.1811 -119.4908 257° West 88 101 9,900  Level Seattle Center
08:03PM 47.1761 -119.5278 259° West 91 105 9,900  Level Seattle Center
08:04PM 47.1717 -119.5636 260° West 88 101 10,000  Climbing Seattle Center
08:05PM 47.1647 -119.5983 254° West 89 102 9,900 -60 Descending Seattle Center
08:06PM 47.1597 -119.6344 259° West 92 106 9,900  Level Seattle Center
08:07PM 47.1567 -119.6694 263° West 87 100 9,900  Level Seattle Center
08:08PM 47.1486 -119.7103 254° West 87 100 9,900  Level Seattle Center
08:09PM 47.1436 -119.7464 259° West 88 101 10,000  Climbing Seattle Center
08:10PM 47.1392 -119.7839 260° West 94 108 10,000  Level Seattle Center
08:11PM 47.1336 -119.8206 257° West 93 107 10,000  Level Seattle Center
08:12PM 47.1261 -119.8569 253° West 95 109 10,000 -60 Level Seattle Center
08:13PM 47.1208 -119.8950 258° West 96 110 9,900  Descending Seattle Center
08:14PM 47.1169 -119.9311 261° West 90 104 10,000  Climbing Seattle Center
08:15PM 47.1097 -119.9661 253° West 93 107 10,000  Level Seattle Center
08:16PM 47.0989 -120.0022 246° West 95 109 10,000  Level Seattle Center
08:17PM 47.0908 -120.0381 252° West 93 107 10,000 -60 Level Seattle Center
08:18PM 47.0839 -120.0733 254° West 90 104 9,900  Descending Seattle Center
08:19PM 47.0808 -120.1067 262° West 86 99 10,000  Climbing Seattle Center
08:20PM 47.0753 -120.1542 260° West 102 117 10,000  Level Seattle Center
08:21PM 47.0689 -120.1928 256° West 99 114 10,000 -60 Level Seattle Center
08:22PM 47.0656 -120.2325 263° West 98 113 9,900 -60 Descending Seattle Center
08:23PM 47.0556 -120.2711 249° West 98 113 9,900  Level Seattle Center
08:24PM 47.0431 -120.3081 244° Southwest 100 115 9,900  Level Seattle Center
08:25PM 47.0333 -120.3453 249° West 99 114 9,900  Level Seattle Center
08:26PM 47.0281 -120.3881 260° West 99 114 10,000  Climbing Seattle Center
08:27PM 47.0244 -120.4258 262° West 95 109 9,900  Descending Seattle Center
08:28PM 47.0222 -120.4661 265° West 98 113 10,000  Climbing Seattle Center
08:29PM 47.0231 -120.5056 272° West 99 114 10,000 -60 Level Seattle Center
08:30PM 47.0256 -120.5447 275° West 99 114 9,900 -60 Descending Seattle Center
08:31PM 47.0264 -120.5858 272° West 102 117 9,900  Level Seattle Center
08:32PM 47.0328 -120.6239 284° West 92 106 9,900  Level Seattle Center
08:33PM 47.0478 -120.6558 305° West 95 109 9,900  Level Seattle Center
08:34PM 47.0603 -120.6889 299° West 97 112 9,900  Level Seattle Center
08:35PM 47.0703 -120.7225 294° West 90 104 9,900  Level Seattle Center
08:36PM 47.0806 -120.7581 293° West 92 106 9,900  Level Seattle Center
08:37PM 47.0928 -120.7897 300° West 89 102 10,000  Climbing Seattle Center
08:38PM 47.1031 -120.8283 291° West 95 109 10,000 60 Level Seattle Center
08:39PM 47.1153 -120.8678 294° West 98 113 10,200  Climbing Seattle Center
08:40PM 47.1275 -120.9086 294° West 107 123 10,100  Descending Seattle Center
08:41PM 47.1369 -120.9483 289° West 105 121 10,200  Climbing Seattle Center
08:42PM 47.1467 -120.9856 291° West 99 114 10,100 -60 Descending Seattle Center
08:43PM 47.1569 -121.0247 291° West 104 120 10,100  Level Seattle Center
08:44PM 47.1650 -121.0636 287° West 101 116 10,200  Climbing Seattle Center
08:45PM 47.1739 -121.1019 289° West 100 115 10,200  Level Seattle Center
08:46PM 47.1803 -121.1164 303° West 98 113 10,200 -120 Level Seattle Center
08:46PM 47.1831 -121.1397 280° West 100 115 10,100 -240 Descending Seattle Center
08:47PM 47.1861 -121.1556 286° West 102 117 10,000 -120 Descending Seattle Center
08:47PM 47.1919 -121.1797 290° West 102 117 10,000  Level Seattle Center
08:48PM 47.1956 -121.1994 285° West 107 123 10,000  Level Seattle Center
08:48PM 47.2017 -121.2292 287° West 105 121 10,000 60 Level Seattle Center
08:49PM 47.2042 -121.2406 288° West 103 119 10,100  Climbing Seattle Center
08:49PM 47.2089 -121.2706 283° West 106 122 10,000 -120 Descending Seattle Center
08:50PM 47.2117 -121.2853 286° West 104 120 10,000 60 Level Seattle Center
08:50PM 47.2178 -121.3114 289° West 106 122 10,100  Climbing Seattle Center
08:51PM 47.2211 -121.3292 285° West 105 121 10,000 -120 Descending Seattle Center
08:51PM 47.2256 -121.3519 286° West 105 121 10,000  Level Seattle Center
08:52PM 47.2281 -121.3644 286° West 105 121 10,000  Level Seattle Center
08:52PM 47.2336 -121.3900 288° West 100 115 10,000  Level Seattle Center
08:53PM 47.2367 -121.4056 286° West 104 120 10,000  Level Seattle Center
08:53PM 47.2461 -121.4356 295° West 108 124 10,000 -120 Level Seattle Center
08:54PM 47.2500 -121.4472 296° West 106 122 9,900 -120 Descending Seattle Center
08:54PM 47.2589 -121.4739 296° West 105 121 9,900 60 Level Seattle Center
08:55PM 47.2639 -121.4917 293° West 105 121 10,000  Climbing Seattle Center
08:56PM 47.2703 -121.5114 296° West 101 116 9,900  Descending Seattle Center
08:56PM 47.2756 -121.5278 295° West 102 117 10,000 60 Climbing Seattle Center
08:57PM 47.2808 -121.5511 288° West 105 121 10,000 -120 Level Seattle Center
08:57PM 47.2853 -121.5647 296° West 101 116 9,900 -120 Descending Seattle Center
08:58PM 47.2928 -121.5911 293° West 100 115 9,900  Level Seattle Center
08:58PM 47.2958 -121.6047 288° West 104 120 9,900  Level Seattle Center
08:59PM 47.3006 -121.6328 284° West 104 120 9,900  Level Seattle Center
08:59PM 47.3011 -121.6511 273° West 101 116 9,900  Level Seattle Center
09:00PM 47.3042 -121.6719 282° West 98 113 9,900  Level Seattle Center
09:00PM 47.3042 -121.6886 270° West 103 119 9,900 60 Level Seattle Center
09:01PM 47.3094 -121.7144 287° West 105 121 10,000 60 Climbing Seattle Center
09:01PM 47.3100 -121.7281 273° West 99 114 10,000  Level Seattle Center
09:02PM 47.3167 -121.7533 291° West 92 106 10,000  Level Seattle Center
09:02PM 47.3189 -121.7622 290° West 95 109 10,000 60 Level Seattle Center
09:03PM 47.3289 -121.7883 299° West 96 110 10,100 60 Climbing Seattle Center
09:03PM 47.3344 -121.7961 317° Northwest 92 106 10,100  Level Seattle Center
09:04PM 47.3497 -121.8119 325° Northwest 95 109 10,100  Level Seattle Center
09:04PM 47.3608 -121.8206 332° Northwest 99 114 10,100 -120 Level Seattle Center
09:05PM 47.3736 -121.8339 325° Northwest 100 115 10,000 -120 Descending Seattle Center
09:05PM 47.3844 -121.8433 329° Northwest 105 121 10,000  Level Seattle Center
09:06PM 47.3989 -121.8564 329° Northwest 106 122 10,000 -120 Level Seattle Center
09:06PM 47.4103 -121.8653 332° Northwest 105 121 9,900 -120 Descending Seattle Center
09:07PM 47.4261 -121.8758 336° Northwest 102 117 9,900  Level Seattle Center
09:07PM 47.4344 -121.8811 337° Northwest 102 117 9,900  Level Seattle Center
09:08PM 47.4508 -121.8956 329° Northwest 102 117 9,900  Level Seattle Center
09:08PM 47.4628 -121.9047 333° Northwest 101 116 9,900  Level Seattle Center
09:09PM 47.4758 -121.9144 333° Northwest 101 116 9,900  Level Seattle Center
09:09PM 47.4869 -121.9208 339° North 102 117 9,900  Level Seattle Center
09:10PM 47.5014 -121.9308 335° Northwest 100 115 9,900  Level Seattle Center
09:10PM 47.5111 -121.9367 338° Northwest 99 114 9,900  Level Seattle Center
09:11PM 47.5278 -121.9511 330° Northwest 100 115 9,900  Level Seattle Center
09:11PM 47.5333 -121.9539 341° North 101 116 9,900  Level Seattle Center
09:12PM 47.5531 -121.9686 333° Northwest 101 116 9,900  Level Seattle Center
09:12PM 47.5583 -121.9728 332° Northwest 101 116 9,900  Level Seattle Center
09:13PM 47.5767 -121.9883 330° Northwest 98 113 9,900  Level Seattle Center
09:13PM 47.5892 -121.9983 332° Northwest 98 113 9,900  Level Seattle Center
09:14PM 47.6006 -122.0078 331° Northwest 98 113 9,900  Level Seattle Center
09:14PM 47.6114 -122.0156 334° Northwest 97 112 9,900  Level Seattle Center
09:15PM 47.6236 -122.0286 324° Northwest 98 113 9,900  Level Seattle Center
09:15PM 47.6325 -122.0367 329° Northwest 101 116 9,900  Level Seattle Center
09:16PM 47.6494 -122.0525 328° Northwest 102 117 9,900  Level Seattle Center
09:16PM 47.6561 -122.0597 324° Northwest 102 117 9,900  Level Seattle Center
09:17PM 47.6719 -122.0750 327° Northwest 98 113 9,900  Level Seattle Center
09:17PM 47.6797 -122.0828 326° Northwest 98 113 9,900  Level Seattle Center
09:18PM 47.6964 -122.0939 336° Northwest 99 114 9,900  Level Seattle Center
09:18PM 47.7014 -122.0969 338° Northwest 98 113 9,900  Level Seattle Center
09:19PM 47.7269 -122.1189 330° Northwest 96 110 9,900  Level Seattle Center
09:20PM 47.7447 -122.1336 331° Northwest 97 112 10,000  Climbing Seattle Center
09:20PM 47.7497 -122.1392 323° Northwest 98 113 9,900 -240 Descending Seattle Center
09:21PM 47.7694 -122.1550 332° Northwest 103 119 9,800 -240 Descending Seattle Center
09:21PM 47.7772 -122.1600 337° Northwest 110 127 9,700 -600 Descending Seattle Center
09:22PM 47.7972 -122.1767 331° Northwest 112 129 9,200 -600 Descending Seattle Center
09:22PM 47.8050 -122.1811 339° North 115 132 9,100 -540 Descending Seattle Center
09:23PM 47.8258 -122.1950 336° Northwest 114 131 8,700 -600 Descending Seattle Center
09:24PM 47.8544 -122.2158 334° Northwest 115 132 8,100 -360 Descending Seattle Center
09:25PM 47.8808 -122.2331 336° Northwest 106 122 8,000 -60 Descending Seattle Center
09:26PM 47.9117 -122.2589 331° Northwest 94 108 8,000  Level Seattle Center
09:27PM 47.9278 -122.2642 348° North 91 105 8,100  Climbing Seattle Center
09:28PM 47.9531 -122.2794 338° Northwest 100 115 8,100  Level Seattle Center
09:29PM 47.9881 -122.2944 344° North 98 113 8,100  Level Seattle Center
09:30PM 48.0092 -122.3025 346° North 98 113 8,100 -240 Level Seattle Center
09:31PM 48.0383 -122.3083 352° North 107 123 7,700 -360 Descending Seattle Center
09:32PM 48.0681 -122.3175 348° North 111 128 7,400 -360 Descending Seattle Center
09:33PM 48.0969 -122.3267 348° North 109 125 7,000 -360 Descending Seattle Center
09:34PM 48.1239 -122.3358 347° North 102 117 6,700 -300 Descending Seattle Center
09:35PM 48.1525 -122.3464 346° North 107 123 6,400 -300 Descending Seattle Center
09:36PM 48.1775 -122.3567 345° North 94 108 6,100 -240 Descending Seattle Center
09:37PM 48.2108 -122.3686 347° North 90 104 6,000  Descending Seattle Center
09:38PM 48.2328 -122.3758 348° North 83 96 6,100  Climbing Seattle Center
09:39PM 48.2539 -122.3836 346° North 89 102 6,100  Level Seattle Center
09:40PM 48.2781 -122.3878 353° North 87 100 6,100  Level Seattle Center
09:41PM 48.3014 -122.3936 351° North 85 98 6,200  Climbing Seattle Center
09:42PM 48.3250 -122.3994 351° North 89 102 6,100 -120 Descending Seattle Center
09:43PM 48.3550 -122.4083 349° North 95 109 6,000 -60 Descending Seattle Center
09:44PM 48.3747 -122.4119 353° North 89 102 6,000  Level Seattle Center
09:45PM 48.4075 -122.4214 349° North 90 104 6,000  Level Seattle Center
09:46PM 48.4286 -122.4272 350° North 88 101 6,100 60 Climbing Seattle Center
09:47PM 48.4528 -122.4342 349° North 91 105 6,200  Climbing Seattle Center
09:48PM 48.4769 -122.4414 349° North 90 104 6,100 -60 Descending Seattle Center
09:49PM 48.5003 -122.4494 347° North 88 101 6,100  Level Seattle Center
09:50PM 48.5233 -122.4575 347° North 87 100 6,100  Level Seattle Center
09:51PM 48.5478 -122.4644 349° North 88 101 6,100 -120 Level Seattle Center
09:52PM 48.5781 -122.4767 345° North 91 105 5,900 -300 Descending Seattle Center
09:53PM 48.5983 -122.4900 336° Northwest 99 114 5,500 -600 Descending Seattle Center
09:54PM 48.6322 -122.5225 328° Northwest 119 137 4,700 -780 Descending Seattle Center
09:55PM 48.6333 -122.5333 279° West 110 127 4,300 -420 Descending Vancouver Center
09:56PM 48.6667 -122.5333 360° North 110 127 4,100 -180 Descending Vancouver Center
09:57PM 48.6833 -122.5667 307° West 100 115 4,000 -180 Descending Vancouver Center
09:58PM 48.7167 -122.5833 342° North 100 115 3,800 -600 Descending Vancouver Center
09:59PM 48.7333 -122.5833 360° North 110 127 2,900 -840 Descending Vancouver Center
10:00PM 48.7667 -122.5833 360° North 110 127 2,200 -720 Descending Vancouver Center
10:01PM 48.8000 -122.5500 33° Northeast 100 115 1,500 -720 Descending Vancouver Center
10:02PM 48.8000 -122.5333 90° East 70 81 800 -600 Descending Vancouver Center
10:03PM 48.7833 -122.5333 180° South 60 69 400 -420 Descending Vancouver Center